createdAt,value
2023-01-27T00:01:04.138Z,20.30
2023-01-27T00:03:32.243Z,20.20
2023-01-27T00:06:01.430Z,21.90
2023-01-27T00:08:29.744Z,21.80
2023-01-27T00:11:18.276Z,21.20
2023-01-27T00:13:46.144Z,21.40
2023-01-27T00:16:14.307Z,23.80
2023-01-27T00:18:42.172Z,22.20
2023-01-27T00:21:28.454Z,20.50
2023-01-27T00:24:15.139Z,21.40
2023-01-27T00:26:42.904Z,20.80
2023-01-27T00:29:10.560Z,20.60
2023-01-27T00:31:56.862Z,20.20
2023-01-27T00:34:24.596Z,21.80
2023-01-27T00:36:52.443Z,21.80
2023-01-27T00:39:20.199Z,21.20
2023-01-27T00:41:48.021Z,22.00
2023-01-27T00:44:15.886Z,23.60
2023-01-27T00:46:43.760Z,22.40
2023-01-27T00:49:13.486Z,20.40
2023-01-27T00:51:42.010Z,20.20
2023-01-27T00:54:09.918Z,21.40
2023-01-27T00:56:37.877Z,20.20
2023-01-27T00:59:06.104Z,21.20
2023-01-27T01:01:34.561Z,20.70
2023-01-27T01:04:02.438Z,19.70
2023-01-27T01:06:30.538Z,20.40
2023-01-27T01:08:58.483Z,19.00
2023-01-27T01:11:26.434Z,22.10
2023-01-27T01:13:56.418Z,20.20
2023-01-27T01:16:25.337Z,18.70
2023-01-27T01:18:53.561Z,19.70
2023-01-27T01:21:21.394Z,20.30
2023-01-27T01:23:49.636Z,19.70
2023-01-27T01:26:18.101Z,20.50
2023-01-27T01:28:46.279Z,16.60
2023-01-27T01:31:18.805Z,18.50
2023-01-27T01:33:49.172Z,18.00
2023-01-27T01:36:19.023Z,18.00
2023-01-27T01:38:47.588Z,18.30
2023-01-27T01:41:17.451Z,17.70
2023-01-27T01:43:45.593Z,15.40
2023-01-27T01:46:13.810Z,17.10
2023-01-27T01:48:42.809Z,17.10
2023-01-27T01:51:10.880Z,17.00
2023-01-27T01:53:42.002Z,15.70
2023-01-27T01:56:12.240Z,16.80
2023-01-27T01:58:44.844Z,16.00
2023-01-27T02:01:14.472Z,16.30
2023-01-27T02:03:43.571Z,16.20
2023-01-27T02:06:11.784Z,16.00
2023-01-27T02:08:41.655Z,15.00
2023-01-27T02:11:10.034Z,14.40
2023-01-27T02:13:39.016Z,15.50
2023-01-27T02:16:07.804Z,15.20
2023-01-27T02:18:35.761Z,14.90
2023-01-27T02:21:04.774Z,13.50
2023-01-27T02:23:35.631Z,13.60
2023-01-27T02:26:24.346Z,14.80
2023-01-27T02:29:18.637Z,14.50
2023-01-27T02:31:46.593Z,13.40
2023-01-27T02:34:16.812Z,15.00
2023-01-27T02:36:50.167Z,16.40
2023-01-27T02:39:20.052Z,15.50
2023-01-27T02:41:52.623Z,15.50
2023-01-27T02:44:20.868Z,16.20
2023-01-27T02:46:48.754Z,15.90
2023-01-27T02:49:16.492Z,15.80
2023-01-27T02:51:44.265Z,16.50
2023-01-27T02:54:12.074Z,15.20
2023-01-27T02:56:39.898Z,17.30
2023-01-27T02:59:08.332Z,15.70
2023-01-27T03:01:36.146Z,15.70
2023-01-27T03:04:04.091Z,16.10
2023-01-27T03:06:31.817Z,15.50
2023-01-27T03:08:59.572Z,16.90
2023-01-27T03:11:46.032Z,15.60
2023-01-27T03:14:13.812Z,14.90
2023-01-27T03:23:54.022Z,14.80
2023-01-27T03:26:21.866Z,15.10
2023-01-27T03:29:09.555Z,16.00
2023-01-27T03:31:37.646Z,15.70
2023-01-27T03:34:05.644Z,15.90
2023-01-27T03:36:52.391Z,16.80
2023-01-27T03:39:38.755Z,16.30
2023-01-27T03:42:25.196Z,17.10
2023-01-27T03:45:11.703Z,15.80
2023-01-27T03:47:39.793Z,14.70
2023-01-27T03:50:11.430Z,17.00
2023-01-27T03:52:39.561Z,16.10
2023-01-27T03:55:09.565Z,17.10
2023-01-27T03:57:38.362Z,17.40
2023-01-27T04:00:06.535Z,15.80
2023-01-27T04:02:53.085Z,15.40
2023-01-27T04:05:40.085Z,16.00
2023-01-27T04:08:07.851Z,17.40
2023-01-27T04:10:35.626Z,17.20
2023-01-27T04:13:03.366Z,18.50
2023-01-27T04:15:31.232Z,16.50
2023-01-27T04:17:58.971Z,16.60
2023-01-27T04:20:26.693Z,17.10
2023-01-27T04:22:54.552Z,17.60
2023-01-27T04:25:22.328Z,17.10
2023-01-27T04:27:50.125Z,19.10
2023-01-27T04:30:18.015Z,18.00
2023-01-27T04:32:45.769Z,15.60
2023-01-27T04:35:14.311Z,18.20
2023-01-27T04:37:42.268Z,18.30
2023-01-27T04:40:10.762Z,17.90
2023-01-27T04:42:38.550Z,18.40
2023-01-27T04:45:06.607Z,16.90
2023-01-27T04:47:34.350Z,19.80
2023-01-27T04:50:02.397Z,19.50
2023-01-27T04:52:30.734Z,17.90
2023-01-27T04:54:58.505Z,19.20
2023-01-27T04:57:28.053Z,20.00
2023-01-27T04:59:55.871Z,19.50
2023-01-27T05:02:23.668Z,19.30
2023-01-27T05:04:51.527Z,20.10
2023-01-27T05:07:19.240Z,20.10
2023-01-27T05:09:46.992Z,20.60
2023-01-27T05:12:14.969Z,20.20
2023-01-27T05:14:42.713Z,18.70
2023-01-27T05:17:10.693Z,19.60
2023-01-27T05:19:38.447Z,19.50
2023-01-27T05:22:06.581Z,19.90
2023-01-27T05:24:34.516Z,20.90
2023-01-27T05:27:02.482Z,21.00
2023-01-27T05:29:30.425Z,20.60
2023-01-27T05:31:58.336Z,21.00
2023-01-27T05:34:26.167Z,21.00
2023-01-27T05:36:53.936Z,20.40
2023-01-27T05:39:21.840Z,21.20
2023-01-27T05:41:50.510Z,19.70
2023-01-27T05:44:18.345Z,21.80
2023-01-27T05:46:46.512Z,20.20
2023-01-27T05:49:15.092Z,21.70
2023-01-27T05:51:43.108Z,20.80
2023-01-27T05:54:11.036Z,19.50
2023-01-27T05:56:39.432Z,19.80
2023-01-27T05:59:07.720Z,20.10
2023-01-27T06:01:37.541Z,20.20
2023-01-27T06:04:05.690Z,20.60
2023-01-27T06:06:33.916Z,23.30
2023-01-27T06:09:01.814Z,22.50
2023-01-27T06:11:29.867Z,22.20
2023-01-27T06:13:57.860Z,21.10
2023-01-27T06:16:25.739Z,22.00
2023-01-27T06:18:53.569Z,20.90
2023-01-27T06:21:21.448Z,20.80
2023-01-27T06:23:49.752Z,21.70
2023-01-27T06:26:19.250Z,21.70
2023-01-27T06:28:47.531Z,21.20
2023-01-27T06:31:16.921Z,21.60
2023-01-27T06:33:44.949Z,22.10
2023-01-27T06:36:16.600Z,22.30
2023-01-27T06:38:44.507Z,21.60
2023-01-27T06:41:12.660Z,21.30
2023-01-27T06:43:40.568Z,24.00
2023-01-27T06:46:08.605Z,23.70
2023-01-27T06:48:38.315Z,22.00
2023-01-27T06:51:06.355Z,21.20
2023-01-27T06:53:35.178Z,21.40
2023-01-27T06:56:03.415Z,22.80
2023-01-27T06:58:33.029Z,21.40
2023-01-27T07:01:00.955Z,23.10
2023-01-27T07:03:28.767Z,21.50
2023-01-27T07:05:56.616Z,21.80
2023-01-27T07:08:24.583Z,20.90
2023-01-27T07:10:52.595Z,20.60
2023-01-27T07:15:55.998Z,24.40
2023-01-27T07:18:22.988Z,22.90
2023-01-27T07:20:49.701Z,20.10
2023-01-27T07:23:16.236Z,21.30
2023-01-27T07:25:44.141Z,20.20
2023-01-27T07:28:10.674Z,19.20
2023-01-27T07:30:38.362Z,23.40
2023-01-27T07:33:05.723Z,18.90
2023-01-27T07:35:34.800Z,19.00
2023-01-27T07:38:01.301Z,19.80
2023-01-27T07:40:27.878Z,19.40
2023-01-27T07:42:57.423Z,19.50
2023-01-27T07:45:23.854Z,18.30
2023-01-27T07:47:50.260Z,18.50
2023-01-27T07:50:16.884Z,16.80
2023-01-27T07:52:43.307Z,17.30
2023-01-27T07:55:09.679Z,18.50
2023-01-27T07:57:36.240Z,22.30
2023-01-27T08:00:05.135Z,17.50
2023-01-27T08:02:31.811Z,18.40
2023-01-27T08:04:58.337Z,18.90
2023-01-27T08:07:24.778Z,16.60
2023-01-27T08:09:53.807Z,19.80
2023-01-27T08:12:20.350Z,17.70
2023-01-27T08:14:46.945Z,14.20
2023-01-27T08:17:13.378Z,12.40
2023-01-27T08:19:39.739Z,13.00
2023-01-27T08:22:06.143Z,12.90
2023-01-27T08:24:32.527Z,13.50
2023-01-27T08:26:58.980Z,14.30
2023-01-27T08:29:25.353Z,13.90
2023-01-27T08:31:51.947Z,11.90
2023-01-27T08:34:18.539Z,13.20
2023-01-27T08:36:44.964Z,13.10
2023-01-27T08:39:11.386Z,14.20
2023-01-27T08:41:37.984Z,13.50
2023-01-27T08:44:04.370Z,13.70
2023-01-27T08:46:31.057Z,15.10
2023-01-27T08:48:57.637Z,15.40
2023-01-27T08:51:24.156Z,14.20
2023-01-27T08:53:50.931Z,15.30
2023-01-27T08:56:17.859Z,16.10
2023-01-27T08:59:02.189Z,16.40
2023-01-27T09:01:30.115Z,17.30
2023-01-27T09:03:57.990Z,15.60
2023-01-27T09:06:25.795Z,18.60
2023-01-27T09:09:11.309Z,16.10
2023-01-27T09:11:41.221Z,15.70
2023-01-27T09:14:09.312Z,17.80
2023-01-27T09:16:37.090Z,15.40
2023-01-27T09:19:05.155Z,17.50
2023-01-27T09:21:32.975Z,15.40
2023-01-27T09:24:00.982Z,13.90
2023-01-27T09:26:28.826Z,14.30
2023-01-27T09:28:56.887Z,15.00
2023-01-27T09:31:24.941Z,14.70
2023-01-27T09:33:52.973Z,13.60
2023-01-27T09:36:21.547Z,15.50
2023-01-27T09:38:55.606Z,18.70
2023-01-27T09:41:36.654Z,19.20
2023-01-27T09:44:16.869Z,33.10
2023-01-27T09:46:47.823Z,21.80
2023-01-27T09:49:15.522Z,15.30
2023-01-27T09:51:43.342Z,20.90
2023-01-27T09:54:23.471Z,39.00
2023-01-27T09:56:51.403Z,28.50
2023-01-27T09:59:41.478Z,19.90
2023-01-27T10:02:39.840Z,17.40
2023-01-27T10:05:10.843Z,17.90
2023-01-27T10:07:57.778Z,16.80
2023-01-27T10:10:25.620Z,15.10
2023-01-27T10:12:56.468Z,16.40
2023-01-27T10:15:40.081Z,16.80
2023-01-27T10:18:26.744Z,13.20
2023-01-27T10:21:11.655Z,13.00
2023-01-27T10:23:51.992Z,14.30
2023-01-27T10:26:29.198Z,14.10
2023-01-27T10:29:09.967Z,15.90
2023-01-27T10:31:43.399Z,18.90
2023-01-27T10:34:22.719Z,20.60
2023-01-27T10:36:55.892Z,18.70
2023-01-27T10:39:47.514Z,17.70
2023-01-27T10:42:30.668Z,18.50
2023-01-27T10:45:14.040Z,23.40
2023-01-27T10:48:00.616Z,19.70
2023-01-27T10:50:31.105Z,17.50
2023-01-27T10:52:58.984Z,19.90
2023-01-27T10:55:33.925Z,17.70
2023-01-27T10:58:13.816Z,17.40
2023-01-27T11:01:18.080Z,17.50
2023-01-27T11:03:38.352Z,15.50
2023-01-27T11:06:12.580Z,16.00
2023-01-27T11:08:45.342Z,15.70
2023-01-27T11:11:33.196Z,20.00
2023-01-27T11:14:07.097Z,20.70
2023-01-27T11:16:52.036Z,23.80
2023-01-27T11:19:26.075Z,19.20
2023-01-27T11:22:06.803Z,22.70
2023-01-27T11:24:44.697Z,18.60
2023-01-27T11:27:33.351Z,16.80
2023-01-27T11:30:15.118Z,18.40
2023-01-27T11:32:48.682Z,16.90
2023-01-27T11:35:16.665Z,16.80
2023-01-27T11:37:46.480Z,16.20
2023-01-27T11:40:34.549Z,16.50
2023-01-27T11:43:02.779Z,20.30
2023-01-27T11:45:34.053Z,19.90
2023-01-27T11:48:02.661Z,19.00
2023-01-27T11:50:32.132Z,17.90
2023-01-27T11:53:20.346Z,22.00
2023-01-27T11:55:54.599Z,23.10
2023-01-27T11:58:27.487Z,24.40
2023-01-27T12:00:58.175Z,23.00
2023-01-27T12:03:45.038Z,20.20
2023-01-27T12:06:26.740Z,22.80
2023-01-27T12:08:54.536Z,20.80
2023-01-27T12:11:24.026Z,23.70
2023-01-27T12:13:57.153Z,19.90
2023-01-27T12:16:27.420Z,20.30
2023-01-27T12:19:15.550Z,21.70
2023-01-27T12:21:48.257Z,21.40
2023-01-27T12:24:21.251Z,21.20
2023-01-27T12:26:51.525Z,20.80
2023-01-27T12:29:23.043Z,20.80
2023-01-27T12:31:51.736Z,21.50
2023-01-27T12:34:28.761Z,20.70
2023-01-27T12:36:57.991Z,21.50
2023-01-27T12:39:28.666Z,20.50
2023-01-27T12:41:56.510Z,22.10
2023-01-27T12:44:26.524Z,22.40
2023-01-27T12:46:57.219Z,20.30
2023-01-27T12:49:29.725Z,21.60
2023-01-27T12:52:01.628Z,22.10
2023-01-27T12:54:32.505Z,22.80
2023-01-27T12:57:11.029Z,21.00
2023-01-27T12:59:48.596Z,22.10
2023-01-27T13:02:21.847Z,21.80
2023-01-27T13:04:54.910Z,24.70
2023-01-27T13:07:29.970Z,24.00
2023-01-27T13:10:03.337Z,24.40
2023-01-27T13:12:37.522Z,23.10
2023-01-27T13:15:08.836Z,22.80
2023-01-27T13:17:46.228Z,24.60
2023-01-27T13:20:17.356Z,24.90
2023-01-27T13:22:52.076Z,23.90
2023-01-27T13:25:49.691Z,23.30
2023-01-27T13:28:25.119Z,27.20
2023-01-27T13:30:56.256Z,25.00
2023-01-27T13:33:30.705Z,28.00
2023-01-27T13:36:06.415Z,25.90
2023-01-27T13:38:37.777Z,26.50
2023-01-27T13:41:14.493Z,24.60
2023-01-27T13:43:44.504Z,23.10
2023-01-27T13:46:17.177Z,26.90
2023-01-27T13:48:56.410Z,28.90
2023-01-27T13:51:25.845Z,25.30
2023-01-27T13:54:03.616Z,27.70
2023-01-27T13:56:34.398Z,25.40
2023-01-27T13:59:17.170Z,24.10
2023-01-27T14:02:03.736Z,24.70
2023-01-27T14:04:42.045Z,23.40
2023-01-27T14:07:10.003Z,23.50
2023-01-27T14:09:53.270Z,25.50
2023-01-27T14:12:21.097Z,25.20
2023-01-27T14:14:57.768Z,25.10
2023-01-27T14:17:32.783Z,25.10
2023-01-27T14:20:19.258Z,25.20
2023-01-27T14:22:56.293Z,21.50
2023-01-27T14:25:24.354Z,22.70
2023-01-27T14:28:11.097Z,23.10
2023-01-27T14:30:44.512Z,23.30
2023-01-27T14:33:18.415Z,23.90
2023-01-27T14:35:51.708Z,22.20
2023-01-27T14:38:27.266Z,22.70
2023-01-27T14:40:55.155Z,21.30
2023-01-27T14:43:37.268Z,21.50
2023-01-27T14:46:18.141Z,25.20
2023-01-27T14:49:01.544Z,22.90
2023-01-27T14:51:29.569Z,22.20
2023-01-27T14:54:06.758Z,18.70
2023-01-27T14:56:34.674Z,20.10
2023-01-27T14:59:11.611Z,21.70
2023-01-27T15:01:56.578Z,20.00
2023-01-27T15:04:45.925Z,17.20
2023-01-27T15:07:14.433Z,18.60
2023-01-27T15:10:02.858Z,21.30
2023-01-27T15:12:30.779Z,20.00
2023-01-27T15:14:59.459Z,20.80
2023-01-27T15:17:27.540Z,21.10
2023-01-27T15:20:14.036Z,21.20
2023-01-27T15:22:54.054Z,20.00
2023-01-27T15:25:29.916Z,21.70
2023-01-27T15:27:58.580Z,22.40
2023-01-27T15:30:31.218Z,25.30
2023-01-27T15:32:59.227Z,23.10
2023-01-27T15:35:30.379Z,23.90
2023-01-27T15:38:15.231Z,25.60
2023-01-27T15:40:56.553Z,22.80
2023-01-27T15:43:25.635Z,21.10
2023-01-27T15:45:57.320Z,26.50
2023-01-27T15:48:28.182Z,25.10
2023-01-27T15:51:00.677Z,27.90
2023-01-27T15:53:31.793Z,30.90
2023-01-27T15:56:00.627Z,30.60
2023-01-27T15:58:28.453Z,27.00
2023-01-27T16:00:58.278Z,30.70
2023-01-27T16:03:28.374Z,32.00
2023-01-27T16:05:59.034Z,35.60
2023-01-27T16:08:30.354Z,34.70
2023-01-27T16:11:17.243Z,26.90
2023-01-27T16:13:47.868Z,26.20
2023-01-27T16:16:18.781Z,32.10
2023-01-27T16:18:53.195Z,32.90
2023-01-27T16:21:39.821Z,32.20
2023-01-27T16:24:25.154Z,31.00
2023-01-27T16:26:59.943Z,31.10
2023-01-27T16:29:48.843Z,24.70
2023-01-27T16:32:18.911Z,27.30
2023-01-27T16:35:09.580Z,24.40
2023-01-27T16:37:39.766Z,33.10
2023-01-27T16:40:16.323Z,30.50
2023-01-27T16:42:55.948Z,30.90
2023-01-27T16:45:25.446Z,23.10
2023-01-27T16:47:56.979Z,23.10
2023-01-27T16:50:36.794Z,24.70
2023-01-27T16:53:06.062Z,26.30
2023-01-27T16:55:34.641Z,25.90
2023-01-27T16:58:02.645Z,24.80
2023-01-27T17:00:33.482Z,21.90
2023-01-27T17:03:04.250Z,23.50
2023-01-27T17:05:32.560Z,25.90
2023-01-27T17:08:22.722Z,24.50
2023-01-27T17:10:51.988Z,24.00
2023-01-27T17:13:29.066Z,21.60
2023-01-27T17:15:58.023Z,22.90
2023-01-27T17:18:26.028Z,23.20
2023-01-27T17:20:55.367Z,22.10
2023-01-27T17:23:29.754Z,20.90
2023-01-27T17:26:00.172Z,21.00
2023-01-27T17:28:29.183Z,22.40
2023-01-27T17:31:07.654Z,20.50
2023-01-27T17:33:36.742Z,23.60
2023-01-27T17:36:10.266Z,20.60
2023-01-27T17:38:45.484Z,26.70
2023-01-27T17:41:32.291Z,35.20
2023-01-27T17:44:01.761Z,19.10
2023-01-27T17:59:49.447Z,20.30
2023-01-27T18:02:26.156Z,22.30
2023-01-27T18:05:05.973Z,20.40
2023-01-27T18:07:48.525Z,20.20
2023-01-27T18:10:23.041Z,22.70
2023-01-27T18:12:55.983Z,24.10
2023-01-27T18:15:47.591Z,23.70
2023-01-27T18:18:20.756Z,23.90
2023-01-27T18:20:57.583Z,21.50
2023-01-27T18:23:27.856Z,23.00
2023-01-27T18:26:14.891Z,21.80
2023-01-27T18:28:58.874Z,19.00
2023-01-27T18:31:38.568Z,17.70
2023-01-27T18:34:07.186Z,19.00
2023-01-27T18:36:36.248Z,19.80
2023-01-27T18:39:28.514Z,24.50
2023-01-27T18:41:57.081Z,21.90
2023-01-27T18:44:34.772Z,16.20
2023-01-27T18:47:16.660Z,19.60
2023-01-27T18:49:45.255Z,17.30
2023-01-27T18:52:15.980Z,23.10
2023-01-27T18:54:44.112Z,21.20
2023-01-27T18:57:12.161Z,17.20
2023-01-27T18:59:40.427Z,18.30
2023-01-27T19:02:14.034Z,18.40
2023-01-27T19:04:42.529Z,16.50
2023-01-27T19:07:18.325Z,20.40
2023-01-27T19:09:47.981Z,12.80
2023-01-27T19:12:16.155Z,12.40
2023-01-27T19:14:46.703Z,7.70
2023-01-27T19:17:22.227Z,10.10
2023-01-27T19:19:50.696Z,9.20
2023-01-27T19:22:21.242Z,8.70
2023-01-27T19:24:50.717Z,9.70
2023-01-27T19:27:19.395Z,10.20
2023-01-27T19:29:47.582Z,10.00
2023-01-27T19:32:15.891Z,10.10
2023-01-27T19:34:44.053Z,8.20
2023-01-27T19:37:16.205Z,7.70
2023-01-27T19:39:45.437Z,8.90
2023-01-27T19:42:14.694Z,8.80
2023-01-27T19:44:43.071Z,8.40
2023-01-27T19:47:13.412Z,6.50
2023-01-27T19:49:41.582Z,8.00
2023-01-27T19:52:10.219Z,10.60
2023-01-27T19:54:38.591Z,15.20
2023-01-27T19:57:10.834Z,14.10
2023-01-27T19:59:39.582Z,10.90
2023-01-27T20:02:09.110Z,9.70
2023-01-27T20:04:37.535Z,8.90
2023-01-27T20:07:05.815Z,11.10
2023-01-27T20:09:34.423Z,8.50
2023-01-27T20:12:03.488Z,9.20
2023-01-27T20:14:32.021Z,7.50
2023-01-27T20:17:00.446Z,7.40
2023-01-27T20:19:29.653Z,8.00
2023-01-27T20:22:02.135Z,10.10
2023-01-27T20:24:30.698Z,13.60
2023-01-27T20:26:59.732Z,13.30
2023-01-27T20:29:28.506Z,13.40
2023-01-27T20:31:58.275Z,10.40
2023-01-27T20:34:26.987Z,9.80
2023-01-27T20:36:56.255Z,8.50
2023-01-27T20:39:31.835Z,10.30
2023-01-27T20:42:00.967Z,9.70
2023-01-27T20:44:29.575Z,11.40
2023-01-27T20:46:57.927Z,9.70
2023-01-27T20:49:26.695Z,8.60
2023-01-27T20:51:55.506Z,8.90
2023-01-27T20:54:23.876Z,9.80
2023-01-27T20:56:52.113Z,9.20
2023-01-27T20:59:20.157Z,8.30
2023-01-27T21:01:48.418Z,8.20
2023-01-27T21:04:16.441Z,8.30
2023-01-27T21:06:44.654Z,8.60
2023-01-27T21:09:13.270Z,9.00
2023-01-27T21:11:41.551Z,7.70
2023-01-27T21:14:11.161Z,7.60
2023-01-27T21:16:39.580Z,7.20
2023-01-27T21:19:08.458Z,6.80
2023-01-27T21:21:36.674Z,7.00
2023-01-27T21:24:06.238Z,24.30
2023-01-27T21:26:36.592Z,11.10
2023-01-27T21:29:05.171Z,7.60
2023-01-27T21:31:33.539Z,6.30
2023-01-27T21:34:01.829Z,6.90
2023-01-27T21:36:29.796Z,5.50
2023-01-27T21:38:57.934Z,6.20
2023-01-27T21:41:44.538Z,6.90
2023-01-27T21:44:34.008Z,5.90
2023-01-27T21:47:02.078Z,5.50
2023-01-27T21:49:33.138Z,6.10
2023-01-27T21:52:01.000Z,6.00
2023-01-27T21:54:28.930Z,6.60
2023-01-27T21:56:56.977Z,7.30
2023-01-27T21:59:25.275Z,7.40
2023-01-27T22:01:55.385Z,8.20
2023-01-27T22:04:23.511Z,7.40
2023-01-27T22:06:51.403Z,6.90
2023-01-27T22:09:19.607Z,7.30
2023-01-27T22:11:47.558Z,9.80
2023-01-27T22:14:15.257Z,8.30
2023-01-27T22:16:43.073Z,6.90
2023-01-27T22:19:13.934Z,8.20
2023-01-27T22:21:41.785Z,8.00
2023-01-27T22:24:09.795Z,8.00
2023-01-27T22:26:37.572Z,10.70
2023-01-27T22:29:05.363Z,9.20
2023-01-27T22:31:33.152Z,8.70
2023-01-27T22:34:01.223Z,7.50
2023-01-27T22:36:29.103Z,8.50
2023-01-27T22:38:56.911Z,7.80
2023-01-27T22:41:24.692Z,11.00
2023-01-27T22:43:52.484Z,9.50
2023-01-27T22:46:20.356Z,9.80
2023-01-27T22:48:48.230Z,7.90
2023-01-27T22:51:16.577Z,7.30
2023-01-27T22:53:44.485Z,8.40
2023-01-27T22:56:12.286Z,8.90
2023-01-27T22:58:40.118Z,9.90
2023-01-27T23:01:07.884Z,6.90
2023-01-27T23:03:35.831Z,7.10
2023-01-27T23:06:04.615Z,7.50
2023-01-27T23:08:33.996Z,7.20
2023-01-27T23:11:02.671Z,6.30
2023-01-27T23:13:30.780Z,6.20
2023-01-27T23:15:59.065Z,7.60
2023-01-27T23:18:27.241Z,7.50
2023-01-27T23:20:55.297Z,7.40
2023-01-27T23:23:25.144Z,7.60
2023-01-27T23:25:53.073Z,8.20
2023-01-27T23:28:22.171Z,7.30
2023-01-27T23:30:50.873Z,7.50
2023-01-27T23:33:19.564Z,7.10
2023-01-27T23:35:48.854Z,6.60
2023-01-27T23:38:31.695Z,7.40
2023-01-27T23:41:11.510Z,6.60
2023-01-27T23:43:43.429Z,5.50
2023-01-27T23:46:12.577Z,5.70
2023-01-27T23:48:49.463Z,5.10
2023-01-27T23:51:18.253Z,5.10
2023-01-27T23:53:46.637Z,5.20
2023-01-27T23:56:17.788Z,4.50
2023-01-27T23:58:45.977Z,4.90
